sensor_id;sensor_type;location;lat;lon;timestamp;temperature;humidity
29721;DHT22;23665;51.044;3.748;2022-08-05T00:00:34;22.20;1.00
29721;DHT22;23665;51.044;3.748;2022-08-05T00:02:59;22.10;1.00
29721;DHT22;23665;51.044;3.748;2022-08-05T00:05:25;22.20;1.00
29721;DHT22;23665;51.044;3.748;2022-08-05T00:07:51;22.20;1.00
29721;DHT22;23665;51.044;3.748;2022-08-05T00:10:17;22.10;1.00
29721;DHT22;23665;51.044;3.748;2022-08-05T00:12:42;22.00;1.00
29721;DHT22;23665;51.044;3.748;2022-08-05T00:15:09;22.10;1.00
29721;DHT22;23665;51.044;3.748;2022-08-05T00:17:35;22.10;1.00
29721;DHT22;23665;51.044;3.748;2022-08-05T00:20:01;22.00;1.00
29721;DHT22;23665;51.044;3.748;2022-08-05T00:22:26;22.00;1.00
29721;DHT22;23665;51.044;3.748;2022-08-05T00:24:52;22.20;1.00
29721;DHT22;23665;51.044;3.748;2022-08-05T00:27:17;22.20;1.00
29721;DHT22;23665;51.044;3.748;2022-08-05T00:29:43;22.10;1.00
29721;DHT22;23665;51.044;3.748;2022-08-05T00:32:09;22.00;1.00
29721;DHT22;23665;51.044;3.748;2022-08-05T00:34:39;22.00;1.00
29721;DHT22;23665;51.044;3.748;2022-08-05T00:37:05;22.20;1.00
29721;DHT22;23665;51.044;3.748;2022-08-05T00:39:31;22.30;1.00
29721;DHT22;23665;51.044;3.748;2022-08-05T00:41:56;22.10;1.00
29721;DHT22;23665;51.044;3.748;2022-08-05T00:44:23;22.10;1.00
29721;DHT22;23665;51.044;3.748;2022-08-05T00:46:49;22.10;1.00
29721;DHT22;23665;51.044;3.748;2022-08-05T00:49:14;22.10;1.00
29721;DHT22;23665;51.044;3.748;2022-08-05T00:51:44;22.20;1.00
29721;DHT22;23665;51.044;3.748;2022-08-05T00:54:11;22.30;1.00
29721;DHT22;23665;51.044;3.748;2022-08-05T00:56:38;22.20;1.00
29721;DHT22;23665;51.044;3.748;2022-08-05T00:59:04;22.20;1.00
29721;DHT22;23665;51.044;3.748;2022-08-05T01:01:30;22.20;1.00
29721;DHT22;23665;51.044;3.748;2022-08-05T01:03:56;22.30;1.00
29721;DHT22;23665;51.044;3.748;2022-08-05T01:06:21;22.40;1.00
29721;DHT22;23665;51.044;3.748;2022-08-05T01:08:47;22.60;1.00
29721;DHT22;23665;51.044;3.748;2022-08-05T01:11:26;22.30;1.00
29721;DHT22;23665;51.044;3.748;2022-08-05T01:30:26;22.10;1.00
29721;DHT22;23665;51.044;3.748;2022-08-05T01:32:55;21.80;1.00
29721;DHT22;23665;51.044;3.748;2022-08-05T01:35:24;21.60;1.00
29721;DHT22;23665;51.044;3.748;2022-08-05T01:37:53;21.90;1.00
29721;DHT22;23665;51.044;3.748;2022-08-05T01:40:22;22.00;1.00
29721;DHT22;23665;51.044;3.748;2022-08-05T01:42:50;21.90;1.00
29721;DHT22;23665;51.044;3.748;2022-08-05T01:45:17;22.10;1.00
29721;DHT22;23665;51.044;3.748;2022-08-05T01:47:45;22.30;1.00
29721;DHT22;23665;51.044;3.748;2022-08-05T01:50:18;22.30;1.00
29721;DHT22;23665;51.044;3.748;2022-08-05T01:52:46;22.10;1.00
29721;DHT22;23665;51.044;3.748;2022-08-05T01:55:16;21.80;1.00
29721;DHT22;23665;51.044;3.748;2022-08-05T01:57:44;21.60;1.00
29721;DHT22;23665;51.044;3.748;2022-08-05T02:00:11;21.60;1.00
29721;DHT22;23665;51.044;3.748;2022-08-05T02:02:41;21.50;1.00
29721;DHT22;23665;51.044;3.748;2022-08-05T02:05:10;21.50;1.00
29721;DHT22;23665;51.044;3.748;2022-08-05T02:07:37;21.40;1.00
29721;DHT22;23665;51.044;3.748;2022-08-05T02:10:04;21.50;1.00
29721;DHT22;23665;51.044;3.748;2022-08-05T02:12:37;21.40;1.00
29721;DHT22;23665;51.044;3.748;2022-08-05T02:15:11;21.50;1.00
29721;DHT22;23665;51.044;3.748;2022-08-05T02:17:44;21.60;1.00
29721;DHT22;23665;51.044;3.748;2022-08-05T02:20:18;21.60;1.00
29721;DHT22;23665;51.044;3.748;2022-08-05T02:22:45;21.50;1.00
29721;DHT22;23665;51.044;3.748;2022-08-05T02:25:23;21.50;1.00
29721;DHT22;23665;51.044;3.748;2022-08-05T02:27:50;21.50;1.00
29721;DHT22;23665;51.044;3.748;2022-08-05T02:30:17;21.70;1.00
29721;DHT22;23665;51.044;3.748;2022-08-05T02:32:46;21.70;1.00
29721;DHT22;23665;51.044;3.748;2022-08-05T02:35:20;21.70;1.00
29721;DHT22;23665;51.044;3.748;2022-08-05T02:37:46;21.70;1.00
29721;DHT22;23665;51.044;3.748;2022-08-05T02:40:15;21.70;1.00
29721;DHT22;23665;51.044;3.748;2022-08-05T02:42:42;21.80;1.00
29721;DHT22;23665;51.044;3.748;2022-08-05T02:45:08;21.60;1.00
29721;DHT22;23665;51.044;3.748;2022-08-05T02:47:35;21.60;1.00
29721;DHT22;23665;51.044;3.748;2022-08-05T02:50:03;21.70;1.00
29721;DHT22;23665;51.044;3.748;2022-08-05T02:52:29;21.60;1.00
29721;DHT22;23665;51.044;3.748;2022-08-05T02:54:56;21.50;1.00
29721;DHT22;23665;51.044;3.748;2022-08-05T02:57:23;21.40;1.00
29721;DHT22;23665;51.044;3.748;2022-08-05T02:59:50;21.50;1.00
29721;DHT22;23665;51.044;3.748;2022-08-05T03:02:21;21.50;1.00
29721;DHT22;23665;51.044;3.748;2022-08-05T03:04:48;21.50;1.00
29721;DHT22;23665;51.044;3.748;2022-08-05T03:07:15;21.50;1.00
29721;DHT22;23665;51.044;3.748;2022-08-05T03:09:42;21.50;1.00
29721;DHT22;23665;51.044;3.748;2022-08-05T03:12:08;21.60;1.00
29721;DHT22;23665;51.044;3.748;2022-08-05T03:14:34;21.50;1.00
29721;DHT22;23665;51.044;3.748;2022-08-05T03:17:01;21.30;1.00
29721;DHT22;23665;51.044;3.748;2022-08-05T03:19:27;21.20;1.00
29721;DHT22;23665;51.044;3.748;2022-08-05T03:21:52;21.30;1.00
29721;DHT22;23665;51.044;3.748;2022-08-05T03:24:18;21.40;1.00
29721;DHT22;23665;51.044;3.748;2022-08-05T03:26:45;21.30;1.00
29721;DHT22;23665;51.044;3.748;2022-08-05T03:29:11;21.20;1.00
29721;DHT22;23665;51.044;3.748;2022-08-05T03:31:37;21.20;1.00
29721;DHT22;23665;51.044;3.748;2022-08-05T03:34:03;21.10;1.00
29721;DHT22;23665;51.044;3.748;2022-08-05T03:36:30;21.50;1.00
29721;DHT22;23665;51.044;3.748;2022-08-05T03:38:56;21.20;1.00
29721;DHT22;23665;51.044;3.748;2022-08-05T03:41:21;20.80;1.00
29721;DHT22;23665;51.044;3.748;2022-08-05T03:43:47;20.90;1.00
29721;DHT22;23665;51.044;3.748;2022-08-05T03:46:13;20.70;1.00
29721;DHT22;23665;51.044;3.748;2022-08-05T03:48:38;20.60;1.00
29721;DHT22;23665;51.044;3.748;2022-08-05T03:53:38;20.40;15.50
29721;DHT22;23665;51.044;3.748;2022-08-05T03:56:14;20.40;8.30
29721;DHT22;23665;51.044;3.748;2022-08-05T03:58:43;20.30;18.90
29721;DHT22;23665;51.044;3.748;2022-08-05T04:01:10;20.30;22.70
29721;DHT22;23665;51.044;3.748;2022-08-05T04:03:38;20.30;16.50
29721;DHT22;23665;51.044;3.748;2022-08-05T04:06:05;20.30;19.50
29721;DHT22;23665;51.044;3.748;2022-08-05T04:08:34;20.30;8.70
29721;DHT22;23665;51.044;3.748;2022-08-05T04:11:00;20.30;16.50
29721;DHT22;23665;51.044;3.748;2022-08-05T04:13:28;20.20;17.60
29721;DHT22;23665;51.044;3.748;2022-08-05T04:15:54;20.00;27.90
29721;DHT22;23665;51.044;3.748;2022-08-05T04:18:22;20.10;28.10
29721;DHT22;23665;51.044;3.748;2022-08-05T04:20:55;20.10;25.70
29721;DHT22;23665;51.044;3.748;2022-08-05T04:23:26;20.10;27.20
29721;DHT22;23665;51.044;3.748;2022-08-05T04:25:52;20.00;29.80
29721;DHT22;23665;51.044;3.748;2022-08-05T04:28:21;19.90;34.70
29721;DHT22;23665;51.044;3.748;2022-08-05T04:30:47;19.80;38.20
29721;DHT22;23665;51.044;3.748;2022-08-05T04:33:14;19.70;43.80
29721;DHT22;23665;51.044;3.748;2022-08-05T04:35:40;19.80;47.50
29721;DHT22;23665;51.044;3.748;2022-08-05T04:38:06;19.70;54.90
29721;DHT22;23665;51.044;3.748;2022-08-05T04:40:37;19.80;41.90
29721;DHT22;23665;51.044;3.748;2022-08-05T04:43:04;19.90;41.90
29721;DHT22;23665;51.044;3.748;2022-08-05T04:45:30;20.10;31.90
29721;DHT22;23665;51.044;3.748;2022-08-05T04:48:08;20.50;25.70
29721;DHT22;23665;51.044;3.748;2022-08-05T04:50:46;21.10;1.00
29721;DHT22;23665;51.044;3.748;2022-08-05T04:53:12;21.40;1.00
29721;DHT22;23665;51.044;3.748;2022-08-05T04:55:39;21.60;1.00
29721;DHT22;23665;51.044;3.748;2022-08-05T04:58:07;21.70;1.00
29721;DHT22;23665;51.044;3.748;2022-08-05T05:00:33;21.90;1.00
29721;DHT22;23665;51.044;3.748;2022-08-05T05:03:00;22.00;1.00
29721;DHT22;23665;51.044;3.748;2022-08-05T05:05:26;22.20;1.00
29721;DHT22;23665;51.044;3.748;2022-08-05T05:07:53;22.10;1.00
29721;DHT22;23665;51.044;3.748;2022-08-05T05:10:19;22.20;1.00
29721;DHT22;23665;51.044;3.748;2022-08-05T05:12:45;22.20;1.00
29721;DHT22;23665;51.044;3.748;2022-08-05T05:15:10;22.30;1.00
29721;DHT22;23665;51.044;3.748;2022-08-05T05:17:40;22.30;1.00
29721;DHT22;23665;51.044;3.748;2022-08-05T05:25:18;22.50;1.00
29721;DHT22;23665;51.044;3.748;2022-08-05T05:27:44;22.40;1.00
29721;DHT22;23665;51.044;3.748;2022-08-05T05:30:10;22.30;1.00
29721;DHT22;23665;51.044;3.748;2022-08-05T05:32:36;22.40;1.00
29721;DHT22;23665;51.044;3.748;2022-08-05T05:35:02;22.90;99.90
29721;DHT22;23665;51.044;3.748;2022-08-05T05:37:27;23.70;99.90
29721;DHT22;23665;51.044;3.748;2022-08-05T05:39:53;23.90;99.90
29721;DHT22;23665;51.044;3.748;2022-08-05T05:42:19;24.00;99.90
29721;DHT22;23665;51.044;3.748;2022-08-05T05:44:44;24.50;99.90
29721;DHT22;23665;51.044;3.748;2022-08-05T05:47:10;23.90;99.90
29721;DHT22;23665;51.044;3.748;2022-08-05T05:49:36;23.50;99.90
29721;DHT22;23665;51.044;3.748;2022-08-05T05:52:02;23.40;99.90
29721;DHT22;23665;51.044;3.748;2022-08-05T05:54:27;23.40;99.90
29721;DHT22;23665;51.044;3.748;2022-08-05T05:56:53;23.90;99.90
29721;DHT22;23665;51.044;3.748;2022-08-05T05:59:19;23.90;79.50
29721;DHT22;23665;51.044;3.748;2022-08-05T06:01:44;23.50;99.90
29721;DHT22;23665;51.044;3.748;2022-08-05T06:04:12;23.60;99.90
29721;DHT22;23665;51.044;3.748;2022-08-05T06:06:39;23.20;61.20
29721;DHT22;23665;51.044;3.748;2022-08-05T06:09:06;22.90;51.10
29721;DHT22;23665;51.044;3.748;2022-08-05T06:11:32;22.80;38.70
29721;DHT22;23665;51.044;3.748;2022-08-05T06:13:59;22.80;59.50
29721;DHT22;23665;51.044;3.748;2022-08-05T06:16:25;22.60;62.60
29721;DHT22;23665;51.044;3.748;2022-08-05T06:18:50;22.40;67.50
29721;DHT22;23665;51.044;3.748;2022-08-05T06:21:17;22.30;72.90
29721;DHT22;23665;51.044;3.748;2022-08-05T06:23:42;22.40;56.00
29721;DHT22;23665;51.044;3.748;2022-08-05T06:26:08;22.10;73.90
29721;DHT22;23665;51.044;3.748;2022-08-05T06:28:34;22.00;65.20
29721;DHT22;23665;51.044;3.748;2022-08-05T06:31:01;22.10;54.80
29721;DHT22;23665;51.044;3.748;2022-08-05T06:33:27;21.90;57.70
29721;DHT22;23665;51.044;3.748;2022-08-05T06:35:52;21.30;79.90
29721;DHT22;23665;51.044;3.748;2022-08-05T06:38:18;21.10;91.30
29721;DHT22;23665;51.044;3.748;2022-08-05T06:40:44;20.90;98.30
29721;DHT22;23665;51.044;3.748;2022-08-05T06:43:10;20.80;96.00
29721;DHT22;23665;51.044;3.748;2022-08-05T06:45:35;20.90;92.10
29721;DHT22;23665;51.044;3.748;2022-08-05T06:48:01;20.90;93.30
29721;DHT22;23665;51.044;3.748;2022-08-05T06:50:27;20.90;95.20
29721;DHT22;23665;51.044;3.748;2022-08-05T06:52:52;20.90;99.20
29721;DHT22;23665;51.044;3.748;2022-08-05T06:55:18;20.80;99.90
29721;DHT22;23665;51.044;3.748;2022-08-05T06:57:44;20.70;98.00
29721;DHT22;23665;51.044;3.748;2022-08-05T07:00:10;20.70;99.90
29721;DHT22;23665;51.044;3.748;2022-08-05T07:02:43;20.70;99.90
29721;DHT22;23665;51.044;3.748;2022-08-05T07:05:09;20.70;99.90
29721;DHT22;23665;51.044;3.748;2022-08-05T07:07:36;20.60;99.50
29721;DHT22;23665;51.044;3.748;2022-08-05T07:10:02;20.70;93.80
29721;DHT22;23665;51.044;3.748;2022-08-05T07:12:28;20.60;95.20
29721;DHT22;23665;51.044;3.748;2022-08-05T07:15:12;20.70;85.60
29721;DHT22;23665;51.044;3.748;2022-08-05T07:17:56;20.90;70.70
29721;DHT22;23665;51.044;3.748;2022-08-05T07:20:22;20.90;64.80
29721;DHT22;23665;51.044;3.748;2022-08-05T07:22:47;20.90;57.20
29721;DHT22;23665;51.044;3.748;2022-08-05T07:25:13;20.80;68.30
29721;DHT22;23665;51.044;3.748;2022-08-05T07:27:39;21.00;57.70
29721;DHT22;23665;51.044;3.748;2022-08-05T07:30:05;21.00;61.10
29721;DHT22;23665;51.044;3.748;2022-08-05T07:32:34;20.90;60.50
29721;DHT22;23665;51.044;3.748;2022-08-05T07:35:01;20.90;54.30
29721;DHT22;23665;51.044;3.748;2022-08-05T07:37:27;21.20;50.10
29721;DHT22;23665;51.044;3.748;2022-08-05T07:39:52;21.60;14.40
29721;DHT22;23665;51.044;3.748;2022-08-05T07:42:18;22.10;1.00
29721;DHT22;23665;51.044;3.748;2022-08-05T07:44:44;22.40;1.00
29721;DHT22;23665;51.044;3.748;2022-08-05T07:47:09;22.50;1.00
29721;DHT22;23665;51.044;3.748;2022-08-05T07:49:35;22.50;1.00
29721;DHT22;23665;51.044;3.748;2022-08-05T07:52:01;22.00;1.00
29721;DHT22;23665;51.044;3.748;2022-08-05T07:54:26;21.90;1.00
29721;DHT22;23665;51.044;3.748;2022-08-05T07:56:53;21.70;1.00
29721;DHT22;23665;51.044;3.748;2022-08-05T07:59:18;21.70;1.00
29721;DHT22;23665;51.044;3.748;2022-08-05T08:01:44;21.60;1.00
29721;DHT22;23665;51.044;3.748;2022-08-05T08:04:10;21.30;1.00
29721;DHT22;23665;51.044;3.748;2022-08-05T08:06:35;21.40;1.00
29721;DHT22;23665;51.044;3.748;2022-08-05T08:09:01;21.40;1.00
29721;DHT22;23665;51.044;3.748;2022-08-05T08:11:27;21.40;1.00
29721;DHT22;23665;51.044;3.748;2022-08-05T08:13:54;21.50;1.00
29721;DHT22;23665;51.044;3.748;2022-08-05T08:16:19;21.80;1.00
29721;DHT22;23665;51.044;3.748;2022-08-05T08:18:45;22.30;1.00
29721;DHT22;23665;51.044;3.748;2022-08-05T08:21:11;22.50;1.00
29721;DHT22;23665;51.044;3.748;2022-08-05T08:23:36;22.70;1.00
29721;DHT22;23665;51.044;3.748;2022-08-05T08:26:02;22.80;99.90
29721;DHT22;23665;51.044;3.748;2022-08-05T08:28:28;22.90;99.90
29721;DHT22;23665;51.044;3.748;2022-08-05T08:30:54;23.30;99.90
29721;DHT22;23665;51.044;3.748;2022-08-05T08:33:20;23.90;99.90
29721;DHT22;23665;51.044;3.748;2022-08-05T08:35:46;24.20;31.00
29721;DHT22;23665;51.044;3.748;2022-08-05T08:38:12;24.50;99.90
29721;DHT22;23665;51.044;3.748;2022-08-05T08:40:41;24.90;1.00
29721;DHT22;23665;51.044;3.748;2022-08-05T08:43:10;24.50;99.90
29721;DHT22;23665;51.044;3.748;2022-08-05T08:45:37;24.30;99.90
29721;DHT22;23665;51.044;3.748;2022-08-05T08:48:03;24.10;99.90
29721;DHT22;23665;51.044;3.748;2022-08-05T08:50:31;24.10;99.90
29721;DHT22;23665;51.044;3.748;2022-08-05T08:53:03;23.90;1.00
29721;DHT22;23665;51.044;3.748;2022-08-05T08:55:30;23.90;1.00
29721;DHT22;23665;51.044;3.748;2022-08-05T08:57:58;23.80;99.90
29721;DHT22;23665;51.044;3.748;2022-08-05T09:00:25;23.20;1.00
29721;DHT22;23665;51.044;3.748;2022-08-05T09:02:52;23.00;55.70
29721;DHT22;23665;51.044;3.748;2022-08-05T09:05:19;23.10;1.00
29721;DHT22;23665;51.044;3.748;2022-08-05T09:07:45;23.10;1.00
29721;DHT22;23665;51.044;3.748;2022-08-05T09:10:11;23.10;99.90
29721;DHT22;23665;51.044;3.748;2022-08-05T09:12:38;23.20;24.50
29721;DHT22;23665;51.044;3.748;2022-08-05T09:15:05;23.10;1.00
29721;DHT22;23665;51.044;3.748;2022-08-05T09:17:31;23.20;1.00
29721;DHT22;23665;51.044;3.748;2022-08-05T09:19:58;23.20;1.00
29721;DHT22;23665;51.044;3.748;2022-08-05T09:22:24;22.90;1.00
29721;DHT22;23665;51.044;3.748;2022-08-05T09:25:10;23.00;10.80
29721;DHT22;23665;51.044;3.748;2022-08-05T09:27:44;23.00;1.00
29721;DHT22;23665;51.044;3.748;2022-08-05T09:30:09;23.10;1.00
29721;DHT22;23665;51.044;3.748;2022-08-05T09:32:38;23.20;99.90
29721;DHT22;23665;51.044;3.748;2022-08-05T09:35:15;23.30;99.90
29721;DHT22;23665;51.044;3.748;2022-08-05T09:37:55;23.70;1.00
29721;DHT22;23665;51.044;3.748;2022-08-05T09:40:39;23.90;1.00
29721;DHT22;23665;51.044;3.748;2022-08-05T09:43:06;24.70;1.00
29721;DHT22;23665;51.044;3.748;2022-08-05T09:45:41;25.10;99.90
29721;DHT22;23665;51.044;3.748;2022-08-05T09:48:20;25.10;67.10
29721;DHT22;23665;51.044;3.748;2022-08-05T09:50:50;24.70;99.90
29721;DHT22;23665;51.044;3.748;2022-08-05T09:53:17;24.60;1.00
29721;DHT22;23665;51.044;3.748;2022-08-05T09:55:43;24.30;1.00
29721;DHT22;23665;51.044;3.748;2022-08-05T09:58:13;24.20;98.60
29721;DHT22;23665;51.044;3.748;2022-08-05T10:00:50;23.80;99.90
29721;DHT22;23665;51.044;3.748;2022-08-05T10:03:16;24.00;99.90
29721;DHT22;23665;51.044;3.748;2022-08-05T10:05:43;24.50;15.50
29721;DHT22;23665;51.044;3.748;2022-08-05T10:08:12;24.90;1.00
29721;DHT22;23665;51.044;3.748;2022-08-05T10:10:46;25.00;1.00
29721;DHT22;23665;51.044;3.748;2022-08-05T10:13:26;24.80;99.90
29721;DHT22;23665;51.044;3.748;2022-08-05T10:15:52;24.70;99.90
29721;DHT22;23665;51.044;3.748;2022-08-05T10:18:19;24.50;95.20
29721;DHT22;23665;51.044;3.748;2022-08-05T10:20:47;24.60;9.40
29721;DHT22;23665;51.044;3.748;2022-08-05T10:25:43;24.90;1.00
29721;DHT22;23665;51.044;3.748;2022-08-05T10:28:09;24.90;1.00
29721;DHT22;23665;51.044;3.748;2022-08-05T10:30:35;24.90;1.00
29721;DHT22;23665;51.044;3.748;2022-08-05T10:33:02;24.50;1.00
29721;DHT22;23665;51.044;3.748;2022-08-05T10:35:28;24.30;1.00
29721;DHT22;23665;51.044;3.748;2022-08-05T10:37:54;24.10;33.40
29721;DHT22;23665;51.044;3.748;2022-08-05T10:40:33;23.60;99.90
29721;DHT22;23665;51.044;3.748;2022-08-05T10:46:07;24.10;1.00
29721;DHT22;23665;51.044;3.748;2022-08-05T10:48:39;24.40;1.00
29721;DHT22;23665;51.044;3.748;2022-08-05T10:51:08;24.20;1.00
29721;DHT22;23665;51.044;3.748;2022-08-05T10:53:40;24.20;1.00
29721;DHT22;23665;51.044;3.748;2022-08-05T10:56:43;24.10;99.90
29721;DHT22;23665;51.044;3.748;2022-08-05T10:59:09;23.80;1.00
29721;DHT22;23665;51.044;3.748;2022-08-05T11:01:42;24.00;1.00
29721;DHT22;23665;51.044;3.748;2022-08-05T11:04:15;24.40;99.90
29721;DHT22;23665;51.044;3.748;2022-08-05T11:09:27;24.70;99.90
29721;DHT22;23665;51.044;3.748;2022-08-05T11:11:53;25.30;1.00
29721;DHT22;23665;51.044;3.748;2022-08-05T11:14:31;25.10;1.00
29721;DHT22;23665;51.044;3.748;2022-08-05T11:19:51;24.90;1.00
29721;DHT22;23665;51.044;3.748;2022-08-05T11:22:46;24.40;1.00
29721;DHT22;23665;51.044;3.748;2022-08-05T11:25:33;24.60;1.00
29721;DHT22;23665;51.044;3.748;2022-08-05T11:36:02;26.20;1.00
29721;DHT22;23665;51.044;3.748;2022-08-05T11:41:15;25.80;99.90
29721;DHT22;23665;51.044;3.748;2022-08-05T11:43:53;25.50;99.90
29721;DHT22;23665;51.044;3.748;2022-08-05T11:49:00;25.30;30.70
29721;DHT22;23665;51.044;3.748;2022-08-05T11:51:27;25.00;99.90
29721;DHT22;23665;51.044;3.748;2022-08-05T11:53:53;25.10;95.90
29721;DHT22;23665;51.044;3.748;2022-08-05T11:56:20;25.10;86.80
29721;DHT22;23665;51.044;3.748;2022-08-05T11:58:48;25.00;99.90
29721;DHT22;23665;51.044;3.748;2022-08-05T12:01:18;25.40;1.00
29721;DHT22;23665;51.044;3.748;2022-08-05T12:03:54;25.90;1.00
29721;DHT22;23665;51.044;3.748;2022-08-05T12:06:24;26.10;1.00
29721;DHT22;23665;51.044;3.748;2022-08-05T12:08:53;26.10;1.00
29721;DHT22;23665;51.044;3.748;2022-08-05T12:11:24;26.40;1.00
29721;DHT22;23665;51.044;3.748;2022-08-05T12:14:05;26.30;1.00
29721;DHT22;23665;51.044;3.748;2022-08-05T12:16:36;25.70;1.00
29721;DHT22;23665;51.044;3.748;2022-08-05T12:19:03;25.70;1.00
29721;DHT22;23665;51.044;3.748;2022-08-05T12:21:34;25.80;1.00
29721;DHT22;23665;51.044;3.748;2022-08-05T12:24:03;26.10;1.00
29721;DHT22;23665;51.044;3.748;2022-08-05T12:26:40;25.90;1.00
29721;DHT22;23665;51.044;3.748;2022-08-05T12:29:10;25.90;99.90
29721;DHT22;23665;51.044;3.748;2022-08-05T12:31:36;26.00;1.00
29721;DHT22;23665;51.044;3.748;2022-08-05T12:34:05;25.90;1.00
29721;DHT22;23665;51.044;3.748;2022-08-05T12:36:31;26.30;99.90
29721;DHT22;23665;51.044;3.748;2022-08-05T12:38:58;26.40;1.00
29721;DHT22;23665;51.044;3.748;2022-08-05T12:41:30;26.10;99.90
29721;DHT22;23665;51.044;3.748;2022-08-05T12:43:58;26.40;99.90
29721;DHT22;23665;51.044;3.748;2022-08-05T12:46:27;26.60;54.30
29721;DHT22;23665;51.044;3.748;2022-08-05T12:49:12;26.40;8.60
29721;DHT22;23665;51.044;3.748;2022-08-05T12:51:49;26.90;1.00
29721;DHT22;23665;51.044;3.748;2022-08-05T12:54:29;26.70;45.10
29721;DHT22;23665;51.044;3.748;2022-08-05T12:56:57;26.70;1.00
29721;DHT22;23665;51.044;3.748;2022-08-05T12:59:28;26.40;1.00
29721;DHT22;23665;51.044;3.748;2022-08-05T13:02:07;26.30;1.00
29721;DHT22;23665;51.044;3.748;2022-08-05T13:04:35;26.50;1.00
29721;DHT22;23665;51.044;3.748;2022-08-05T13:07:04;26.60;1.00
29721;DHT22;23665;51.044;3.748;2022-08-05T13:09:32;26.40;1.00
29721;DHT22;23665;51.044;3.748;2022-08-05T13:12:08;26.00;1.00
29721;DHT22;23665;51.044;3.748;2022-08-05T13:14:45;25.70;1.00
29721;DHT22;23665;51.044;3.748;2022-08-05T13:19:40;25.70;1.00
29721;DHT22;23665;51.044;3.748;2022-08-05T13:22:06;25.70;1.00
29721;DHT22;23665;51.044;3.748;2022-08-05T13:24:32;25.80;1.00
29721;DHT22;23665;51.044;3.748;2022-08-05T13:26:58;25.40;1.00
29721;DHT22;23665;51.044;3.748;2022-08-05T13:29:24;25.20;1.00
29721;DHT22;23665;51.044;3.748;2022-08-05T13:31:49;25.40;1.00
29721;DHT22;23665;51.044;3.748;2022-08-05T13:34:15;25.20;1.00
29721;DHT22;23665;51.044;3.748;2022-08-05T13:36:42;25.90;1.00
29721;DHT22;23665;51.044;3.748;2022-08-05T13:39:08;26.10;1.00
29721;DHT22;23665;51.044;3.748;2022-08-05T13:41:35;26.00;1.00
29721;DHT22;23665;51.044;3.748;2022-08-05T13:44:01;26.20;1.00
29721;DHT22;23665;51.044;3.748;2022-08-05T13:46:27;26.30;1.00
29721;DHT22;23665;51.044;3.748;2022-08-05T13:48:54;26.10;1.00
29721;DHT22;23665;51.044;3.748;2022-08-05T13:51:31;25.80;1.00
29721;DHT22;23665;51.044;3.748;2022-08-05T13:53:57;25.90;1.00
29721;DHT22;23665;51.044;3.748;2022-08-05T13:56:23;25.40;1.00
29721;DHT22;23665;51.044;3.748;2022-08-05T13:58:48;25.60;1.00
29721;DHT22;23665;51.044;3.748;2022-08-05T14:01:14;25.40;1.00
29721;DHT22;23665;51.044;3.748;2022-08-05T14:03:40;25.50;1.00
29721;DHT22;23665;51.044;3.748;2022-08-05T14:06:06;25.60;1.00
29721;DHT22;23665;51.044;3.748;2022-08-05T14:08:32;25.60;1.00
29721;DHT22;23665;51.044;3.748;2022-08-05T14:10:58;25.30;1.00
29721;DHT22;23665;51.044;3.748;2022-08-05T14:13:23;24.90;1.00
29721;DHT22;23665;51.044;3.748;2022-08-05T14:15:50;24.80;1.00
29721;DHT22;23665;51.044;3.748;2022-08-05T14:18:16;24.90;1.00
29721;DHT22;23665;51.044;3.748;2022-08-05T14:20:42;25.10;1.00
29721;DHT22;23665;51.044;3.748;2022-08-05T14:23:07;25.20;1.00
29721;DHT22;23665;51.044;3.748;2022-08-05T14:25:33;25.40;1.00
29721;DHT22;23665;51.044;3.748;2022-08-05T14:27:59;25.20;1.00
29721;DHT22;23665;51.044;3.748;2022-08-05T14:30:25;24.90;1.00
29721;DHT22;23665;51.044;3.748;2022-08-05T14:32:51;25.10;1.00
29721;DHT22;23665;51.044;3.748;2022-08-05T14:35:16;25.10;1.00
29721;DHT22;23665;51.044;3.748;2022-08-05T14:37:42;24.80;1.00
29721;DHT22;23665;51.044;3.748;2022-08-05T14:40:08;24.50;1.00
29721;DHT22;23665;51.044;3.748;2022-08-05T14:42:34;24.20;1.00
29721;DHT22;23665;51.044;3.748;2022-08-05T14:45:00;24.30;1.00
29721;DHT22;23665;51.044;3.748;2022-08-05T14:47:26;24.30;1.00
29721;DHT22;23665;51.044;3.748;2022-08-05T14:49:52;23.90;1.00
29721;DHT22;23665;51.044;3.748;2022-08-05T14:52:17;23.80;1.00
29721;DHT22;23665;51.044;3.748;2022-08-05T14:54:45;23.90;52.90
29721;DHT22;23665;51.044;3.748;2022-08-05T14:57:11;24.00;98.10
29721;DHT22;23665;51.044;3.748;2022-08-05T14:59:36;24.20;66.40
29721;DHT22;23665;51.044;3.748;2022-08-05T15:02:03;24.00;99.90
29721;DHT22;23665;51.044;3.748;2022-08-05T15:04:29;23.90;99.90
29721;DHT22;23665;51.044;3.748;2022-08-05T15:06:55;23.70;99.90
29721;DHT22;23665;51.044;3.748;2022-08-05T15:09:21;23.80;99.90
29721;DHT22;23665;51.044;3.748;2022-08-05T15:11:47;23.90;99.90
29721;DHT22;23665;51.044;3.748;2022-08-05T15:14:12;23.90;99.90
29721;DHT22;23665;51.044;3.748;2022-08-05T15:16:39;24.00;99.90
29721;DHT22;23665;51.044;3.748;2022-08-05T15:19:05;23.90;99.90
29721;DHT22;23665;51.044;3.748;2022-08-05T15:21:30;24.00;99.90
29721;DHT22;23665;51.044;3.748;2022-08-05T15:23:56;24.10;99.90
29721;DHT22;23665;51.044;3.748;2022-08-05T15:26:22;24.00;99.90
29721;DHT22;23665;51.044;3.748;2022-08-05T15:28:48;23.90;99.90
29721;DHT22;23665;51.044;3.748;2022-08-05T15:31:14;24.10;99.90
29721;DHT22;23665;51.044;3.748;2022-08-05T15:33:39;24.00;99.90
29721;DHT22;23665;51.044;3.748;2022-08-05T15:36:05;23.40;99.90
29721;DHT22;23665;51.044;3.748;2022-08-05T15:38:32;23.60;99.90
29721;DHT22;23665;51.044;3.748;2022-08-05T15:40:58;23.90;99.90
29721;DHT22;23665;51.044;3.748;2022-08-05T15:43:23;24.20;99.90
29721;DHT22;23665;51.044;3.748;2022-08-05T15:45:49;24.00;99.90
29721;DHT22;23665;51.044;3.748;2022-08-05T15:48:15;24.00;99.90
29721;DHT22;23665;51.044;3.748;2022-08-05T15:50:41;23.90;1.00
29721;DHT22;23665;51.044;3.748;2022-08-05T15:53:07;23.60;1.00
29721;DHT22;23665;51.044;3.748;2022-08-05T15:55:32;23.80;1.00
29721;DHT22;23665;51.044;3.748;2022-08-05T15:57:58;23.80;1.00
29721;DHT22;23665;51.044;3.748;2022-08-05T16:00:24;23.80;1.00
29721;DHT22;23665;51.044;3.748;2022-08-05T16:02:50;23.80;99.90
29721;DHT22;23665;51.044;3.748;2022-08-05T16:05:15;24.10;99.90
29721;DHT22;23665;51.044;3.748;2022-08-05T16:07:41;23.20;99.90
29721;DHT22;23665;51.044;3.748;2022-08-05T16:10:07;23.10;1.00
29721;DHT22;23665;51.044;3.748;2022-08-05T16:12:33;23.50;1.00
29721;DHT22;23665;51.044;3.748;2022-08-05T16:15:00;23.90;99.90
29721;DHT22;23665;51.044;3.748;2022-08-05T16:17:26;24.20;99.90
29721;DHT22;23665;51.044;3.748;2022-08-05T16:19:51;24.20;99.90
29721;DHT22;23665;51.044;3.748;2022-08-05T16:22:17;24.10;99.90
29721;DHT22;23665;51.044;3.748;2022-08-05T16:24:43;23.90;99.90
29721;DHT22;23665;51.044;3.748;2022-08-05T16:27:08;24.10;76.50
29721;DHT22;23665;51.044;3.748;2022-08-05T16:29:34;24.30;1.00
29721;DHT22;23665;51.044;3.748;2022-08-05T16:32:00;24.30;1.00
29721;DHT22;23665;51.044;3.748;2022-08-05T16:34:26;25.10;1.00